createdAt,value
2022-08-17T00:01:55.332Z,99482.73
2022-08-17T00:04:22.666Z,99486.34
2022-08-17T00:06:50.035Z,99486.89
2022-08-17T00:09:18.648Z,99481.95
2022-08-17T00:12:42.082Z,99476.10
2022-08-17T00:14:45.040Z,99474.00
2022-08-17T00:17:11.720Z,99468.25
2022-08-17T00:19:44.179Z,99466.04
2022-08-17T00:22:31.502Z,99469.48
2022-08-17T00:25:15.181Z,99466.92
2022-08-17T00:27:42.156Z,99462.70
2022-08-17T00:30:10.733Z,99462.57
2022-08-17T00:33:13.569Z,99461.43
2022-08-17T00:36:00.485Z,99456.47
2022-08-17T00:38:41.800Z,99451.41
2022-08-17T00:41:25.473Z,99448.84
2022-08-17T00:44:05.090Z,99449.36
2022-08-17T00:46:40.485Z,99452.15
2022-08-17T00:49:20.929Z,99448.68
2022-08-17T00:52:00.425Z,99447.70
2022-08-17T00:54:41.859Z,99448.29
2022-08-17T00:57:17.440Z,99447.92
2022-08-17T01:00:02.742Z,99450.26
2022-08-17T01:02:41.465Z,99454.45
2022-08-17T01:05:12.928Z,99461.02
2022-08-17T01:07:43.518Z,99466.05
2022-08-17T01:10:58.269Z,99473.48
2022-08-17T01:13:02.723Z,99477.36
2022-08-17T01:15:29.957Z,99473.31
2022-08-17T01:17:59.920Z,99472.85
2022-08-17T01:20:42.643Z,99474.41
2022-08-17T01:23:25.847Z,99471.92
2022-08-17T01:26:14.920Z,99468.50
2022-08-17T01:28:55.142Z,99471.77
2022-08-17T01:31:32.865Z,99470.81
2022-08-17T01:34:12.268Z,99471.94
2022-08-17T01:36:49.425Z,99467.93
2022-08-17T01:39:26.174Z,99464.39
2022-08-17T01:42:10.381Z,99461.03
2022-08-17T01:44:48.923Z,99456.52
2022-08-17T01:47:40.594Z,99457.33
2022-08-17T01:50:18.840Z,99458.40
2022-08-17T01:52:58.325Z,99458.16
2022-08-17T01:55:31.459Z,99458.09
2022-08-17T01:58:10.560Z,99460.89
2022-08-17T02:01:09.741Z,99461.68
2022-08-17T02:03:39.931Z,99460.96
2022-08-17T02:06:45.146Z,99461.46
2022-08-17T02:09:23.277Z,99458.98
2022-08-17T02:11:58.015Z,99458.40
2022-08-17T02:14:35.489Z,99458.70
2022-08-17T02:17:02.488Z,99459.89
2022-08-17T02:19:40.239Z,99457.61
2022-08-17T02:22:14.352Z,99459.45
2022-08-17T02:25:06.602Z,99459.33
2022-08-17T02:27:41.751Z,99462.52
2022-08-17T02:30:59.330Z,99469.52
2022-08-17T02:33:56.912Z,99473.27
2022-08-17T02:36:40.046Z,99477.30
2022-08-17T02:39:17.629Z,99480.96
2022-08-17T02:41:48.349Z,99482.11
2022-08-17T02:44:39.010Z,99486.73
2022-08-17T02:47:14.307Z,99491.17
2022-08-17T02:54:39.653Z,99496.09
2022-08-17T02:57:24.069Z,99498.83
2022-08-17T02:59:59.089Z,99499.05
2022-08-17T03:02:28.047Z,99496.69
2022-08-17T03:05:06.598Z,99494.80
2022-08-17T03:07:34.887Z,99490.62
2022-08-17T03:10:11.827Z,99489.47
2022-08-17T03:12:46.930Z,99489.71
2022-08-17T03:15:25.609Z,99488.17
2022-08-17T03:17:53.965Z,99492.09
2022-08-17T03:20:31.308Z,99496.91
2022-08-17T03:23:24.283Z,99496.96
2022-08-17T03:25:53.807Z,99492.67
2022-08-17T03:28:23.756Z,99490.61
2022-08-17T03:30:50.942Z,99496.64
2022-08-17T03:33:18.237Z,99501.15
2022-08-17T03:35:46.659Z,99500.35
2022-08-17T03:38:15.167Z,99500.34
2022-08-17T03:40:57.509Z,99502.30
2022-08-17T03:43:31.693Z,99504.21
2022-08-17T03:47:11.510Z,99502.63
2022-08-17T03:49:39.103Z,99503.15
2022-08-17T04:03:39.917Z,99515.61
2022-08-17T04:06:09.478Z,99520.73
2022-08-17T04:08:38.835Z,99522.08
2022-08-17T04:11:05.519Z,99519.50
2022-08-17T04:13:46.936Z,99524.30
2022-08-17T04:16:49.995Z,99528.59
2022-08-17T04:19:17.048Z,99528.21
2022-08-17T04:22:30.353Z,99524.50
2022-08-17T04:25:29.161Z,99523.77
2022-08-17T04:32:10.846Z,99524.77
2022-08-17T04:35:02.801Z,99524.88
2022-08-17T04:37:46.001Z,99530.48
2022-08-17T04:43:51.576Z,99529.71
2022-08-17T04:48:38.658Z,99546.52
2022-08-17T04:51:30.979Z,99545.77
2022-08-17T04:54:23.858Z,99546.06
2022-08-17T04:56:58.773Z,99547.61
2022-08-17T04:59:49.300Z,99550.85
2022-08-17T05:11:38.562Z,99551.53
2022-08-17T05:13:31.179Z,99551.08
2022-08-17T05:13:42.522Z,99547.70
2022-08-17T05:16:13.781Z,99547.98
2022-08-17T05:19:15.357Z,99555.98
2022-08-17T05:25:51.790Z,99558.92
2022-08-17T05:28:27.518Z,99553.54
2022-08-17T05:40:58.827Z,99562.79
2022-08-17T05:43:38.249Z,99562.73
2022-08-17T05:46:21.161Z,99566.20
2022-08-17T05:49:01.355Z,99565.69
2022-08-17T05:51:55.163Z,99565.85
2022-08-17T05:54:53.219Z,99563.84
2022-08-17T05:57:43.346Z,99560.84
2022-08-17T06:00:45.907Z,99565.41
2022-08-17T06:09:37.697Z,99562.27
2022-08-17T06:18:41.711Z,99570.73
2022-08-17T06:21:11.182Z,99571.44
2022-08-17T06:23:50.713Z,99571.65
2022-08-17T06:26:37.284Z,99577.73
2022-08-17T06:29:50.780Z,99582.70
2022-08-17T06:33:06.572Z,99584.13
2022-08-17T06:35:41.914Z,99583.27
2022-08-17T06:38:37.593Z,99583.77
2022-08-17T06:41:07.796Z,99583.90
2022-08-17T06:43:46.224Z,99584.90
2022-08-17T06:46:27.537Z,99587.83
2022-08-17T06:49:07.675Z,99587.63
2022-08-17T06:51:37.738Z,99585.95
2022-08-17T06:54:11.973Z,99586.34
2022-08-17T06:56:53.795Z,99586.48
2022-08-17T06:59:25.676Z,99588.42
2022-08-17T07:01:55.868Z,99585.34
2022-08-17T07:04:34.112Z,99586.23
2022-08-17T07:07:29.375Z,99587.79
2022-08-17T07:10:02.295Z,99587.32
2022-08-17T07:12:41.035Z,99586.85
2022-08-17T07:15:19.816Z,99593.94
2022-08-17T07:17:48.552Z,99594.69
2022-08-17T07:20:20.029Z,99595.93
2022-08-17T07:22:53.599Z,99598.29
2022-08-17T07:25:30.075Z,99597.88
2022-08-17T07:28:00.399Z,99597.23
2022-08-17T07:30:47.238Z,99596.27
2022-08-17T07:33:19.355Z,99593.69
2022-08-17T07:35:49.582Z,99592.13
2022-08-17T07:38:25.648Z,99593.44
2022-08-17T07:41:03.332Z,99596.77
2022-08-17T07:43:38.951Z,99600.64
2022-08-17T07:46:43.829Z,99600.35
2022-08-17T07:49:10.596Z,99602.91
2022-08-17T07:51:37.340Z,99600.02
2022-08-17T07:54:24.230Z,99597.33
2022-08-17T07:57:04.204Z,99599.54
2022-08-17T07:59:33.846Z,99601.95
2022-08-17T08:02:04.131Z,99603.91
2022-08-17T08:07:30.381Z,99608.02
2022-08-17T08:16:33.160Z,99602.20
2022-08-17T08:19:01.140Z,99600.45
2022-08-17T08:21:50.800Z,99602.03
2022-08-17T08:24:41.111Z,99602.90
2022-08-17T08:27:15.384Z,99604.55
2022-08-17T08:30:04.522Z,99601.08
2022-08-17T08:33:13.080Z,99595.66
2022-08-17T08:35:53.510Z,99597.46
2022-08-17T08:38:22.138Z,99598.77
2022-08-17T08:41:00.135Z,99595.52
2022-08-17T08:43:35.795Z,99593.73
2022-08-17T08:46:19.689Z,99598.98
2022-08-17T08:48:58.050Z,99599.73
2022-08-17T08:51:44.733Z,99598.65
2022-08-17T08:54:35.202Z,99600.99
2022-08-17T08:57:25.691Z,99599.77
2022-08-17T09:00:01.545Z,99601.16
2022-08-17T09:02:34.797Z,99599.96
2022-08-17T09:05:27.998Z,99602.76
2022-08-17T09:08:13.300Z,99602.89
2022-08-17T09:10:58.981Z,99605.38
2022-08-17T09:13:43.775Z,99606.99
2022-08-17T09:16:16.445Z,99605.19
2022-08-17T09:18:59.793Z,99606.79
2022-08-17T09:21:49.124Z,99606.17
2022-08-17T09:24:20.683Z,99602.22
2022-08-17T09:26:54.959Z,99602.80
2022-08-17T09:29:25.803Z,99597.48
2022-08-17T09:31:57.190Z,99595.28
2022-08-17T09:34:32.223Z,99600.77
2022-08-17T09:37:10.795Z,99605.36
2022-08-17T09:39:54.907Z,99606.02
2022-08-17T09:42:37.313Z,99601.30
2022-08-17T09:45:03.832Z,99598.77
2022-08-17T09:47:34.377Z,99604.77
2022-08-17T09:50:19.622Z,99603.55
2022-08-17T09:53:06.738Z,99601.03
2022-08-17T09:55:47.465Z,99603.88
2022-08-17T09:58:16.993Z,99604.45
2022-08-17T10:00:47.377Z,99603.20
2022-08-17T10:03:20.035Z,99602.13
2022-08-17T10:06:09.435Z,99604.61
2022-08-17T10:08:39.015Z,99599.79
2022-08-17T10:11:51.485Z,99598.18
2022-08-17T10:14:37.502Z,99597.59
2022-08-17T10:17:21.060Z,99598.07
2022-08-17T10:19:47.533Z,99595.56
2022-08-17T10:22:49.873Z,99598.02
2022-08-17T10:25:54.001Z,99599.03
2022-08-17T10:28:29.835Z,99602.17
2022-08-17T10:31:23.284Z,99604.86
2022-08-17T10:33:56.895Z,99605.31
2022-08-17T10:36:33.928Z,99608.23
2022-08-17T10:39:19.206Z,99602.83
2022-08-17T10:41:49.768Z,99604.54
2022-08-17T10:44:38.829Z,99599.98
2022-08-17T10:47:07.084Z,99598.04
2022-08-17T10:49:46.991Z,99595.48
2022-08-17T10:52:19.505Z,99592.84
2022-08-17T10:54:58.263Z,99586.25
2022-08-17T10:57:26.176Z,99584.36
2022-08-17T10:59:53.711Z,99578.31
2022-08-17T11:02:21.476Z,99573.49
2022-08-17T11:04:54.951Z,99574.52
2022-08-17T11:07:43.244Z,99572.95
2022-08-17T11:10:19.026Z,99568.30
2022-08-17T11:13:02.001Z,99573.45
2022-08-17T11:15:44.584Z,99575.61
2022-08-17T11:18:32.622Z,99577.25
2022-08-17T11:21:08.345Z,99576.81
2022-08-17T11:23:53.471Z,99572.14
2022-08-17T11:26:27.048Z,99573.31
2022-08-17T11:28:58.269Z,99568.61
2022-08-17T11:31:39.156Z,99565.15
2022-08-17T11:34:17.006Z,99562.11
2022-08-17T11:37:03.658Z,99554.09
2022-08-17T11:39:30.089Z,99554.38
2022-08-17T11:42:06.546Z,99553.19
2022-08-17T11:44:42.585Z,99557.33
2022-08-17T11:47:30.017Z,99554.86
2022-08-17T11:50:14.780Z,99551.23
2022-08-17T11:52:44.530Z,99553.00
2022-08-17T11:55:39.582Z,99545.58
2022-08-17T11:58:14.453Z,99547.70
2022-08-17T12:00:44.019Z,99548.24
2022-08-17T12:03:30.962Z,99545.16
2022-08-17T12:06:20.547Z,99546.50
2022-08-17T12:08:51.977Z,99544.09
2022-08-17T12:11:55.507Z,99541.98
2022-08-17T12:14:45.044Z,99544.88
2022-08-17T12:17:13.435Z,99541.69
2022-08-17T12:19:48.928Z,99537.06
2022-08-17T12:22:24.735Z,99537.16
2022-08-17T12:24:56.861Z,99532.45
2022-08-17T12:27:43.155Z,99529.33
2022-08-17T12:30:14.194Z,99532.02
2022-08-17T12:32:47.584Z,99527.79
2022-08-17T12:35:24.559Z,99523.52
2022-08-17T12:37:57.005Z,99525.05
2022-08-17T12:40:29.304Z,99527.42
2022-08-17T12:42:57.489Z,99529.44
2022-08-17T12:45:29.012Z,99524.63
2022-08-17T12:47:59.751Z,99521.02
2022-08-17T12:50:29.398Z,99519.17
2022-08-17T12:53:01.675Z,99519.89
2022-08-17T12:55:35.536Z,99516.94
2022-08-17T12:58:08.121Z,99514.70
2022-08-17T13:00:40.644Z,99515.37
2022-08-17T13:03:21.471Z,99513.58
2022-08-17T13:06:00.048Z,99513.41
2022-08-17T13:08:26.442Z,99510.48
2022-08-17T13:10:57.529Z,99507.04
2022-08-17T13:13:28.546Z,99504.73
2022-08-17T13:15:57.606Z,99505.70
2022-08-17T13:18:33.159Z,99508.80
2022-08-17T13:21:00.397Z,99511.22
2022-08-17T13:23:28.607Z,99508.27
2022-08-17T13:26:16.869Z,99500.75
2022-08-17T13:28:48.042Z,99502.71
2022-08-17T13:31:27.473Z,99501.44
2022-08-17T13:34:14.598Z,99500.83
2022-08-17T13:36:46.171Z,99501.58
2022-08-17T13:39:28.876Z,99501.14
2022-08-17T13:41:55.493Z,99498.23
2022-08-17T13:44:38.682Z,99497.77
2022-08-17T13:47:15.961Z,99494.52
2022-08-17T13:49:49.040Z,99496.48
2022-08-17T13:52:34.836Z,99492.14
2022-08-17T13:55:04.580Z,99488.21
2022-08-17T13:57:34.317Z,99496.59
2022-08-17T14:00:15.525Z,99502.68
2022-08-17T14:02:42.219Z,99499.12
2022-08-17T14:05:08.780Z,99497.80
2022-08-17T14:07:38.478Z,99500.80
2022-08-17T14:10:13.190Z,99502.98
2022-08-17T14:12:44.157Z,99504.25
2022-08-17T14:15:21.846Z,99499.92
2022-08-17T14:18:01.055Z,99508.27
2022-08-17T14:20:27.649Z,99504.84
2022-08-17T14:22:55.127Z,99503.36
2022-08-17T14:25:23.876Z,99500.01
2022-08-17T14:27:54.098Z,99503.33
2022-08-17T14:30:26.927Z,99501.06
2022-08-17T14:33:01.539Z,99496.84
2022-08-17T14:35:28.989Z,99492.04
2022-08-17T14:37:55.581Z,99489.69
2022-08-17T14:40:27.504Z,99489.89
2022-08-17T14:42:55.368Z,99489.15
2022-08-17T14:45:36.313Z,99484.39
2022-08-17T14:48:06.825Z,99488.48
2022-08-17T14:50:35.279Z,99491.44
2022-08-17T14:53:04.151Z,99492.04
2022-08-17T14:55:31.932Z,99492.94
2022-08-17T14:58:29.043Z,99495.33
2022-08-17T15:01:00.721Z,99492.13
2022-08-17T15:03:28.188Z,99495.39
2022-08-17T15:05:54.834Z,99494.48
2022-08-17T15:08:21.324Z,99493.67
2022-08-17T15:10:54.478Z,99494.91
2022-08-17T15:13:25.447Z,99495.94
2022-08-17T15:15:52.523Z,99494.14
2022-08-17T15:18:19.706Z,99494.84
2022-08-17T15:20:49.436Z,99488.59
2022-08-17T15:23:24.379Z,99483.28
2022-08-17T15:25:52.102Z,99483.89
2022-08-17T15:28:22.166Z,99480.71
2022-08-17T15:30:49.631Z,99481.30
2022-08-17T15:33:17.622Z,99483.27
2022-08-17T15:35:48.926Z,99484.67
2022-08-17T15:38:20.224Z,99481.83
2022-08-17T15:40:49.573Z,99476.04
2022-08-17T15:43:22.020Z,99473.54
2022-08-17T15:46:02.585Z,99472.48
2022-08-17T15:48:40.904Z,99469.97
2022-08-17T15:51:11.679Z,99467.84
2022-08-17T15:53:39.091Z,99463.89
2022-08-17T15:56:08.759Z,99462.69
2022-08-17T15:58:36.109Z,99461.70
2022-08-17T16:01:16.570Z,99462.19
2022-08-17T16:04:01.402Z,99454.58
2022-08-17T16:06:31.710Z,99456.00
2022-08-17T16:08:59.753Z,99456.73
2022-08-17T16:11:26.338Z,99456.76
2022-08-17T16:13:54.680Z,99460.29
2022-08-17T16:16:23.046Z,99464.23
2022-08-17T16:18:53.523Z,99467.05
2022-08-17T16:21:26.333Z,99467.80
2022-08-17T16:23:55.912Z,99470.27
2022-08-17T16:26:23.077Z,99472.25
2022-08-17T16:28:50.010Z,99472.73
2022-08-17T16:31:16.631Z,99475.05
2022-08-17T16:34:15.954Z,99478.93
2022-08-17T16:36:31.231Z,99478.20
2022-08-17T16:38:57.612Z,99477.45
2022-08-17T16:41:39.393Z,99480.52
2022-08-17T16:44:05.863Z,99484.77
2022-08-17T16:46:32.913Z,99490.98
2022-08-17T16:49:02.222Z,99488.40
2022-08-17T16:51:28.823Z,99489.34
2022-08-17T16:53:59.143Z,99487.23
2022-08-17T16:56:26.155Z,99484.88
2022-08-17T16:58:53.354Z,99488.51
2022-08-17T17:01:20.850Z,99490.68
2022-08-17T17:03:51.048Z,99489.55
2022-08-17T17:06:22.476Z,99491.99
2022-08-17T17:08:51.534Z,99496.59
2022-08-17T17:11:22.677Z,99499.65
2022-08-17T17:13:53.720Z,99496.88
2022-08-17T17:16:40.646Z,99496.38
2022-08-17T17:19:19.546Z,99496.69
2022-08-17T17:22:02.150Z,99497.48
2022-08-17T17:24:34.539Z,99503.36
2022-08-17T17:27:07.113Z,99507.17
2022-08-17T17:29:48.642Z,99508.60
2022-08-17T17:32:20.352Z,99504.02
2022-08-17T17:34:52.701Z,99506.98
2022-08-17T17:37:23.981Z,99511.27
2022-08-17T17:39:52.318Z,99513.07
2022-08-17T17:42:21.430Z,99511.45
2022-08-17T17:44:50.571Z,99514.92
2022-08-17T17:47:17.995Z,99517.73
2022-08-17T17:49:45.921Z,99518.65
2022-08-17T17:52:31.269Z,99514.95
2022-08-17T17:55:03.990Z,99514.80
2022-08-17T17:57:36.453Z,99517.27
2022-08-17T18:00:11.135Z,99519.56
2022-08-17T18:02:46.543Z,99521.29
2022-08-17T18:05:18.264Z,99524.29
2022-08-17T18:08:07.351Z,99525.88
2022-08-17T18:10:40.682Z,99524.31
2022-08-17T18:13:10.388Z,99527.94
2022-08-17T18:15:50.475Z,99526.55
2022-08-17T18:18:16.946Z,99526.39
2022-08-17T18:20:56.114Z,99527.23
2022-08-17T18:23:27.892Z,99531.54
2022-08-17T18:25:55.968Z,99535.06
2022-08-17T18:28:25.238Z,99539.60
2022-08-17T18:31:10.622Z,99537.01
2022-08-17T18:33:38.740Z,99542.98
2022-08-17T18:36:05.854Z,99543.02
2022-08-17T18:38:33.375Z,99549.50
2022-08-17T18:41:04.737Z,99546.52
2022-08-17T18:43:44.400Z,99546.06
2022-08-17T18:46:29.051Z,99548.35
2022-08-17T18:48:59.548Z,99551.41
2022-08-17T18:51:41.577Z,99555.30
2022-08-17T18:54:22.908Z,99555.42
2022-08-17T18:56:49.423Z,99554.27
2022-08-17T18:59:16.295Z,99554.55
2022-08-17T19:02:27.317Z,99556.29
2022-08-17T19:05:02.445Z,99560.17
2022-08-17T19:07:38.016Z,99557.67
2022-08-17T19:10:23.324Z,99559.14
2022-08-17T19:12:49.746Z,99557.82
2022-08-17T19:15:18.542Z,99560.94
2022-08-17T19:17:47.673Z,99559.39
2022-08-17T19:20:14.471Z,99560.17
2022-08-17T19:22:49.215Z,99565.00
2022-08-17T19:25:22.407Z,99567.31
2022-08-17T19:27:57.338Z,99567.60
2022-08-17T19:30:24.591Z,99572.55
2022-08-17T19:32:52.425Z,99569.47
2022-08-17T19:35:19.678Z,99567.78
2022-08-17T19:37:55.885Z,99569.96
2022-08-17T19:40:48.975Z,99570.87
2022-08-17T19:43:16.195Z,99569.45
2022-08-17T19:45:48.781Z,99568.22
2022-08-17T19:48:21.323Z,99566.41
2022-08-17T19:51:07.385Z,99563.55
2022-08-17T19:54:07.734Z,99561.02
2022-08-17T19:56:57.980Z,99558.14
2022-08-17T19:59:52.416Z,99558.05
2022-08-17T20:02:18.889Z,99558.79
2022-08-17T20:04:55.743Z,99559.48
2022-08-17T20:07:30.304Z,99559.14
2022-08-17T20:10:06.125Z,99561.17
2022-08-17T20:12:34.820Z,99564.77
2022-08-17T20:15:24.626Z,99569.82
2022-08-17T20:17:51.767Z,99568.00
2022-08-17T20:20:27.760Z,99572.34
2022-08-17T20:23:08.917Z,99578.60
2022-08-17T20:25:46.231Z,99573.31
2022-08-17T20:28:15.960Z,99570.50
2022-08-17T20:30:43.192Z,99573.59
2022-08-17T20:33:28.339Z,99574.96
2022-08-17T20:36:13.625Z,99575.19
2022-08-17T20:38:43.241Z,99577.14
2022-08-17T20:41:20.281Z,99579.08
2022-08-17T20:43:52.978Z,99578.92
2022-08-17T20:46:26.251Z,99578.68
2022-08-17T20:48:55.784Z,99578.33
2022-08-17T20:51:34.193Z,99577.16
2022-08-17T20:54:06.238Z,99580.23
2022-08-17T20:56:42.506Z,99581.61
2022-08-17T20:59:30.853Z,99582.27
2022-08-17T21:02:12.380Z,99586.20
2022-08-17T21:04:52.716Z,99588.36
2022-08-17T21:07:33.080Z,99586.13
2022-08-17T21:10:10.178Z,99589.79
2022-08-17T21:12:47.462Z,99591.33
2022-08-17T21:15:27.924Z,99593.59
2022-08-17T21:17:58.595Z,99594.36
2022-08-17T21:20:34.072Z,99592.21
2022-08-17T21:23:17.402Z,99591.14
2022-08-17T21:25:45.792Z,99590.21
2022-08-17T21:28:36.409Z,99588.44
2022-08-17T21:31:28.629Z,99594.30
2022-08-17T21:34:14.902Z,99589.92
2022-08-17T21:36:45.193Z,99584.01
2022-08-17T21:39:16.442Z,99587.55
2022-08-17T21:41:52.269Z,99591.64
2022-08-17T21:44:18.750Z,99595.45
2022-08-17T21:46:46.940Z,99597.66
2022-08-17T21:49:16.197Z,99597.38
2022-08-17T21:51:56.058Z,99598.57
2022-08-17T21:54:26.983Z,99601.56
2022-08-17T21:56:57.603Z,99600.60
2022-08-17T21:59:26.912Z,99599.80
2022-08-17T22:01:56.963Z,99603.59
2022-08-17T22:04:29.774Z,99605.64
2022-08-17T22:06:57.880Z,99607.18
2022-08-17T22:09:35.165Z,99607.70
2022-08-17T22:12:05.072Z,99611.27
2022-08-17T22:14:52.247Z,99612.27
2022-08-17T22:17:26.637Z,99613.14
2022-08-17T22:19:53.189Z,99609.55
2022-08-17T22:22:25.830Z,99609.29
2022-08-17T22:24:57.595Z,99607.86
2022-08-17T22:27:45.649Z,99608.34
2022-08-17T22:30:24.759Z,99606.89
2022-08-17T22:32:53.518Z,99606.17
2022-08-17T22:35:28.787Z,99605.85
2022-08-17T22:37:55.922Z,99608.67
2022-08-17T22:40:30.644Z,99608.73
2022-08-17T22:42:58.211Z,99609.92
2022-08-17T22:45:26.348Z,99607.63
2022-08-17T22:47:54.918Z,99611.41
2022-08-17T22:50:23.652Z,99616.31
2022-08-17T22:53:14.723Z,99617.38
2022-08-17T22:56:20.075Z,99619.61
2022-08-17T22:59:25.329Z,99623.88
2022-08-17T23:02:11.867Z,99625.56
2022-08-17T23:04:40.596Z,99620.27
2022-08-17T23:07:07.080Z,99620.83
2022-08-17T23:09:33.979Z,99619.68
2022-08-17T23:12:00.958Z,99622.57
2022-08-17T23:14:31.260Z,99623.22
2022-08-17T23:17:01.335Z,99623.26
2022-08-17T23:19:31.058Z,99621.96
2022-08-17T23:21:58.857Z,99628.93
2022-08-17T23:24:27.635Z,99626.98
2022-08-17T23:26:56.612Z,99627.92
2022-08-17T23:29:33.099Z,99627.67
2022-08-17T23:32:00.723Z,99632.02
2022-08-17T23:34:27.970Z,99635.21
2022-08-17T23:36:54.939Z,99634.30
2022-08-17T23:39:24.390Z,99632.65
2022-08-17T23:41:53.059Z,99633.53
2022-08-17T23:44:22.830Z,99631.52
2022-08-17T23:46:50.762Z,99627.36
2022-08-17T23:49:19.080Z,99629.98
2022-08-17T23:51:47.240Z,99628.91
2022-08-17T23:54:34.904Z,99629.06
2022-08-17T23:57:03.468Z,99627.06
2022-08-17T23:59:30.202Z,99627.91
